Main page
METAR-TAF:

METAR-TAF

Airports :

King Abdulaziz International Airport

Jeddah, Saudi Arabia

latitude: 21-42N, longitude: 039-11E, elevation: 15 m

Current weather observation

The report was made 25 minutes ago, at 22:00 UTC
Wind 8 kt from the Southwest
Temperature 32°C
Humidity 71%
Pressure 1005 hPa
Visibility 10 km or more
no clouds below 1500 m and no cumulonimbus

METAR: OEJN 182200Z 22008KT CAVOK 32/26 Q1005 NOSIG

Time: 01:25 (22:25 UTC)

Forecast

The report was made 5 hours and 25 minutes ago, at 17:00 UTC
Forecast valid from 18 at 18 UTC to 19 at 24 UTC
Wind 6 kt from the North/Northeast
Visibility: 7000 m
Few clouds at a height of 4000 ft
Scattered clouds at a height of 10000 ft
Becoming
from 19 at 06 UTC to 19 at 08 UTC
Wind 6 kt from the North/Northwest with gusts up to 18 kt

TAF: OEJN 181700Z 1818/1924 03006KT 7000 FEW040 SCT100 BECMG 1906/1908 33006G18KT

Weather observations and forecasts of more than 4000 airports (METAR and TAF reports).

The available stations are represented by yellow and red dots on the map.

Hover mouse over dot to see the name of the station.

Then click to see weather observations and forecasts.

To change the map : click on the green buttons with a black cross to zoom in, on the green button with a dash to zoom out, or on the green arrows for adjacent maps.


METAR-TAF: